Time;durP1;ratioP1;P1;durP2;ratioP2;P2;SDS_P1;SDS_P2;PMS_P1;PMS_P2;Temp;Humidity;BMP_temperature;BMP_pressure;BME280_temperature;BME280_humidity;BME280_pressure;Samples;Min_cycle;Max_cycle;Signal;HPM_P1;HPM_P2
2024/01/05 00:01:21;;;;;;;13.75;4.85;;;;;;;7.24;100.00;99780.59;5090066;28;20522;-60
2024/01/05 00:03:47;;;;;;;21.50;5.47;;;;;;;7.23;100.00;99781.53;5090638;28;20028;-60
2024/01/05 00:06:12;;;;;;;17.48;4.82;;;;;;;7.26;100.00;99785.78;5089511;28;20039;-60
2024/01/05 00:08:40;;;;;;;15.63;4.10;;;;;;;7.22;100.00;99765.78;5090226;28;20096;-60
2024/01/05 00:11:05;;;;;;;19.52;4.38;;;;;;;7.30;100.00;99771.41;5089915;28;20032;-59
2024/01/05 00:13:33;;;;;;;20.50;4.32;;;;;;;7.31;100.00;99764.31;5091228;28;20209;-60
2024/01/05 00:15:59;;;;;;;19.55;5.40;;;;;;;7.26;100.00;99760.19;5091399;28;20384;-60
2024/01/05 00:18:24;;;;;;;16.52;5.10;;;;;;;7.32;100.00;99761.56;5091380;28;20024;-60
2024/01/05 00:20:49;;;;;;;19.92;3.95;;;;;;;7.35;100.00;99766.66;5073046;28;20472;-60
2024/01/05 00:23:15;;;;;;;13.63;3.70;;;;;;;7.37;100.00;99761.25;5090139;28;20024;-60
2024/01/05 00:25:40;;;;;;;17.52;4.13;;;;;;;7.38;100.00;99761.19;5090895;28;20039;-60
2024/01/05 00:28:06;;;;;;;20.77;3.55;;;;;;;7.40;100.00;99761.06;5090897;28;20423;-60
2024/01/05 00:30:34;;;;;;;14.48;3.50;;;;;;;7.42;100.00;99759.16;5090087;28;20494;-60
2024/01/05 00:33:02;;;;;;;10.20;3.80;;;;;;;7.45;100.00;99756.31;5090077;28;20028;-60
2024/01/05 00:35:27;;;;;;;11.43;3.88;;;;;;;7.47;100.00;99755.25;5089544;28;20078;-60
2024/01/05 00:37:53;;;;;;;12.88;3.83;;;;;;;7.43;100.00;99735.25;5090993;28;20051;-60
2024/01/05 00:40:18;;;;;;;15.68;3.70;;;;;;;7.52;100.00;99749.63;5090353;28;20374;-60
2024/01/05 00:42:43;;;;;;;18.42;4.53;;;;;;;7.53;100.00;99738.13;5090715;28;20020;-60
2024/01/05 00:45:09;;;;;;;16.30;4.88;;;;;;;7.53;100.00;99732.84;5092445;28;20020;-60
2024/01/05 00:47:34;;;;;;;15.18;4.68;;;;;;;7.56;100.00;99723.81;5090420;28;20017;-60
2024/01/05 00:50:00;;;;;;;12.82;4.07;;;;;;;7.57;100.00;99733.47;5090040;28;20028;-60
2024/01/05 00:52:25;;;;;;;15.98;4.50;;;;;;;7.53;100.00;99719.59;5090849;28;20032;-60
2024/01/05 00:54:51;;;;;;;12.57;3.63;;;;;;;7.53;100.00;99726.66;5090178;28;20104;-60
2024/01/05 00:57:16;;;;;;;17.15;3.90;;;;;;;7.58;100.00;99724.56;5090689;28;20379;-60
2024/01/05 00:59:41;;;;;;;15.40;4.00;;;;;;;7.50;100.00;99699.50;5090496;28;20024;-60
2024/01/05 01:02:07;;;;;;;11.02;4.00;;;;;;;7.57;100.00;99712.28;5090513;28;20110;-60
2024/01/05 01:04:32;;;;;;;9.05;3.30;;;;;;;7.61;100.00;99719.91;5089147;28;20028;-60
2024/01/05 01:06:58;;;;;;;16.27;3.72;;;;;;;7.62;100.00;99721.63;5090617;28;20031;-60
2024/01/05 01:09:23;;;;;;;18.52;4.22;;;;;;;7.59;100.00;99705.94;5089804;28;20385;-60
2024/01/05 01:11:52;;;;;;;18.90;4.60;;;;;;;7.59;100.00;99705.94;5090186;28;20027;-60
2024/01/05 01:14:17;;;;;;;15.40;3.70;;;;;;;7.56;100.00;99705.28;5095129;28;20142;-60
2024/01/05 01:16:43;;;;;;;12.63;3.78;;;;;;;7.58;100.00;99696.28;5072567;28;20420;-60
2024/01/05 01:19:08;;;;;;;11.00;3.58;;;;;;;7.59;100.00;99707.72;5090477;28;20030;-60
2024/01/05 01:21:34;;;;;;;13.73;3.45;;;;;;;7.58;100.00;99696.28;5090515;28;20038;-60
2024/01/05 01:23:59;;;;;;;4.13;3.50;;;;;;;7.60;100.00;99696.22;5088813;28;20505;-60
2024/01/05 01:26:27;;;;;;;14.43;4.00;;;;;;;7.61;100.00;99689.94;5089886;28;20059;-60
2024/01/05 01:28:52;;;;;;;12.27;3.65;;;;;;;7.60;100.00;99685.63;5090465;28;20028;-60
2024/01/05 01:31:17;;;;;;;19.52;4.72;;;;;;;7.60;100.00;99682.97;5088933;28;20136;-60
2024/01/05 01:33:45;;;;;;;17.90;5.78;;;;;;;7.61;100.00;99676.72;5089967;28;20028;-60
2024/01/05 01:36:10;;;;;;;15.55;4.55;;;;;;;7.62;100.00;99678.44;5088065;28;20024;-60
2024/01/05 01:38:36;;;;;;;13.43;3.70;;;;;;;7.61;100.00;99676.72;5088968;28;20035;-60
2024/01/05 01:41:03;;;;;;;15.90;3.90;;;;;;;7.63;100.00;99674.81;5089964;28;20141;-60
2024/01/05 01:43:29;;;;;;;10.50;3.72;;;;;;;7.63;100.00;99672.19;5088510;28;20493;-60
2024/01/05 01:46:00;;;;;;;12.20;4.05;;;;;;;7.62;100.00;99659.91;5090096;28;20052;-60
2024/01/05 01:48:27;;;;;;;15.00;4.50;;;;;;;7.64;100.00;99657.97;5089777;28;20031;-60
2024/01/05 01:50:55;;;;;;;13.70;3.88;;;;;;;7.65;100.00;99657.06;5088385;28;20070;-60
2024/01/05 01:53:23;;;;;;;6.30;3.75;;;;;;;7.64;100.00;99653.53;5088119;28;20086;-60
2024/01/05 01:55:49;;;;;;;13.82;3.67;;;;;;;7.65;100.00;99649.97;5089625;28;20024;-60
2024/01/05 01:58:16;;;;;;;13.20;3.60;;;;;;;7.66;100.00;99653.44;5090031;28;20483;-60
2024/01/05 02:00:43;;;;;;;9.82;3.70;;;;;;;7.60;100.00;99638.00;5089346;28;20027;-62
2024/01/05 02:03:09;;;;;;;15.18;3.83;;;;;;;7.66;100.00;99638.41;5088673;28;20020;-60
2024/01/05 02:05:36;;;;;;;13.02;3.63;;;;;;;7.64;100.00;99636.81;5089641;28;20024;-60
2024/01/05 02:08:02;;;;;;;8.48;3.78;;;;;;;7.64;100.00;99628.88;5088925;28;20257;-60
2024/01/05 02:10:28;;;;;;;9.13;3.50;;;;;;;7.61;100.00;99623.81;5089079;28;20422;-60
2024/01/05 02:12:54;;;;;;;9.43;3.30;;;;;;;7.59;100.00;99620.41;5089873;28;20020;-60
2024/01/05 02:15:19;;;;;;;12.45;3.45;;;;;;;7.56;100.00;99613.56;5089593;28;20024;-60
2024/01/05 02:17:45;;;;;;;11.52;3.47;;;;;;;7.46;100.00;99592.19;5088762;28;20028;-60
2024/01/05 02:20:10;;;;;;;9.85;3.05;;;;;;;7.47;100.00;99588.59;5089631;28;20447;-60
2024/01/05 02:22:38;;;;;;;8.80;3.40;;;;;;;7.51;100.00;99602.44;5088817;28;20020;-60
2024/01/05 02:25:04;;;;;;;7.18;3.42;;;;;;;7.48;100.00;99597.38;5089166;28;20024;-60
2024/01/05 02:27:29;;;;;;;13.35;3.00;;;;;;;7.41;100.00;99585.50;5088441;28;20039;-60
2024/01/05 02:29:55;;;;;;;10.77;3.78;;;;;;;7.42;100.00;99597.81;5089120;28;20020;-60
2024/01/05 02:32:20;;;;;;;9.25;3.30;;;;;;;7.34;100.00;99578.97;5089949;28;20016;-60
2024/01/05 02:34:45;;;;;;;7.40;3.40;;;;;;;7.39;100.00;99579.50;5091115;28;20417;-60
2024/01/05 02:37:11;;;;;;;4.80;3.10;;;;;;;7.15;100.00;99542.41;5093561;28;20046;-60
2024/01/05 02:39:36;;;;;;;11.65;2.95;;;;;;;7.37;100.00;99579.59;5091993;28;20049;-60
2024/01/05 02:42:02;;;;;;;7.20;3.05;;;;;;;7.27;100.00;99560.91;5092993;28;20069;-60
2024/01/05 02:44:32;;;;;;;10.40;2.95;;;;;;;7.30;100.00;99569.59;5092732;28;20565;-60
2024/01/05 02:47:02;;;;;;;14.75;3.70;;;;;;;7.35;100.00;99565.63;5092751;28;20020;-60
2024/01/05 02:49:27;;;;;;;10.48;2.95;;;;;;;7.39;100.00;99567.13;5092727;28;20107;-60
2024/01/05 02:51:53;;;;;;;11.18;4.80;;;;;;;7.33;100.00;99554.34;5095921;28;20119;-60
2024/01/05 02:54:18;;;;;;;8.90;3.17;;;;;;;7.40;100.00;99558.22;5091282;28;20525;-60
2024/01/05 02:56:43;;;;;;;8.23;2.90;;;;;;;7.35;100.00;99548.91;5093058;28;20081;-60
2024/01/05 02:59:09;;;;;;;6.47;3.85;;;;;;;7.41;100.00;99549.34;5092617;28;20146;-60
2024/01/05 03:01:34;;;;;;;10.23;3.95;;;;;;;7.44;100.00;99554.44;5092349;28;20031;-60
2024/01/05 03:04:01;;;;;;;9.50;3.33;;;;;;;7.44;100.00;99550.91;5092727;28;20032;-60
2024/01/05 03:06:26;;;;;;;11.00;3.03;;;;;;;7.45;100.00;99542.88;5091979;28;20028;-60
2024/01/05 03:08:52;;;;;;;7.95;2.85;;;;;;;7.46;100.00;99549.00;5074751;28;20020;-60
2024/01/05 03:11:18;;;;;;;8.80;3.35;;;;;;;7.46;100.00;99541.91;5090537;28;20039;-60
2024/01/05 03:13:43;;;;;;;9.98;3.25;;;;;;;7.49;100.00;99540.84;5092421;28;20062;-60
2024/01/05 03:16:08;;;;;;;7.10;2.75;;;;;;;7.46;100.00;99536.63;5092750;28;20066;-60
2024/01/05 03:18:36;;;;;;;6.45;3.35;;;;;;;7.47;100.00;99527.75;5092586;28;20024;-60
2024/01/05 03:21:04;;;;;;;8.68;4.03;;;;;;;7.50;100.00;99527.53;5091216;28;20064;-60
2024/01/05 03:23:29;;;;;;;14.23;3.00;;;;;;;7.43;100.00;99512.19;5090075;28;20059;-60
2024/01/05 03:25:56;;;;;;;5.72;2.80;;;;;;;7.48;100.00;99512.72;5092234;28;20059;-60
2024/01/05 03:28:22;;;;;;;13.43;3.40;;;;;;;7.52;100.00;99514.19;5090852;28;20043;-60
2024/01/05 03:30:47;;;;;;;10.40;3.20;;;;;;;7.49;100.00;99507.31;5092331;28;20027;-60
2024/01/05 03:33:13;;;;;;;9.52;3.15;;;;;;;7.59;100.00;99509.28;5090916;28;20028;-60
2024/01/05 03:35:38;;;;;;;7.47;2.78;;;;;;;7.56;100.00;99504.22;5091234;28;20074;-60
2024/01/05 03:38:04;;;;;;;8.27;2.78;;;;;;;7.59;100.00;99504.00;5092252;28;20390;-60
2024/01/05 03:40:29;;;;;;;4.88;2.28;;;;;;;7.59;100.00;99504.88;5090750;28;20482;-60
2024/01/05 03:42:56;;;;;;;9.77;2.88;;;;;;;7.59;100.00;99504.88;5091725;28;20112;-60
2024/01/05 03:45:21;;;;;;;9.40;2.92;;;;;;;7.60;100.00;99501.25;5090341;28;20061;-60
2024/01/05 03:47:46;;;;;;;7.10;3.00;;;;;;;7.60;100.00;99484.53;5091523;28;20020;-60
2024/01/05 03:50:12;;;;;;;4.88;2.67;;;;;;;7.62;100.00;99488.75;5091666;28;20028;-60
2024/01/05 03:52:37;;;;;;;7.50;2.35;;;;;;;7.62;100.00;99480.81;5092066;28;20818;-60
2024/01/05 03:55:03;;;;;;;5.90;2.60;;;;;;;7.59;100.00;99472.25;5090946;28;20115;-60
2024/01/05 03:57:28;;;;;;;3.30;2.65;;;;;;;7.53;100.00;99459.47;5091619;28;20047;-60
2024/01/05 03:59:54;;;;;;;3.97;2.50;;;;;;;7.63;100.00;99465.78;5073476;28;20130;-60
2024/01/05 04:02:19;;;;;;;12.18;3.08;;;;;;;7.63;100.00;99463.97;5091690;28;20035;-60
2024/01/05 04:04:45;;;;;;;7.18;2.40;;;;;;;7.59;100.00;99456.38;5091967;28;20039;-60
2024/01/05 04:07:11;;;;;;;3.13;2.72;;;;;;;7.66;100.00;99466.41;5091342;28;20024;-60
2024/01/05 04:09:36;;;;;;;6.32;2.67;;;;;;;7.65;100.00;99458.59;5090058;28;20471;-60
2024/01/05 04:12:02;;;;;;;8.25;3.72;;;;;;;7.70;100.00;99451.13;5091389;28;20059;-59
2024/01/05 04:14:28;;;;;;;8.57;2.67;;;;;;;7.66;100.00;99452.34;5090270;28;20032;-60
2024/01/05 04:16:53;;;;;;;3.55;2.67;;;;;;;7.66;100.00;99436.47;5091153;28;20027;-60
2024/01/05 04:19:19;;;;;;;6.60;2.70;;;;;;;7.60;100.00;99426.31;5091348;28;20031;-60
2024/01/05 04:21:44;;;;;;;8.45;2.92;;;;;;;7.60;100.00;99434.25;5092826;28;20037;-60
2024/01/05 04:24:11;;;;;;;5.60;2.90;;;;;;;7.63;100.00;99432.22;5090174;28;20115;-60
2024/01/05 04:26:36;;;;;;;4.78;2.70;;;;;;;7.65;100.00;99437.44;5090581;28;20537;-59
2024/01/05 04:29:02;;;;;;;7.20;2.90;;;;;;;7.58;100.00;99413.19;5089830;28;20106;-60
2024/01/05 04:31:27;;;;;;;3.35;2.50;;;;;;;7.61;100.00;99415.63;5091067;28;20028;-60
2024/01/05 04:33:54;;;;;;;13.55;2.72;;;;;;;7.64;100.00;99403.97;5090186;28;20179;-60
2024/01/05 04:36:20;;;;;;;7.75;2.70;;;;;;;7.63;100.00;99405.78;5089843;28;20024;-60
2024/01/05 04:38:45;;;;;;;5.38;2.40;;;;;;;7.65;100.00;99417.09;5089856;28;20023;-60
2024/01/05 04:41:13;;;;;;;8.20;2.95;;;;;;;7.63;100.00;99410.22;5089918;28;20099;-60
2024/01/05 04:43:39;;;;;;;8.80;3.03;;;;;;;7.62;100.00;99400.59;5088447;28;20027;-60
2024/01/05 04:46:05;;;;;;;8.43;2.95;;;;;;;7.61;100.00;99394.44;5090499;28;20028;-60
2024/01/05 04:48:31;;;;;;;4.50;3.20;;;;;;;7.57;100.00;99384.22;5091106;28;20016;-60
2024/01/05 04:50:56;;;;;;;3.85;3.05;;;;;;;7.54;100.00;99385.28;5090471;28;20490;-60
2024/01/05 04:53:22;;;;;;;5.63;3.45;;;;;;;7.56;100.00;99388.69;5089421;28;20016;-60
2024/01/05 04:55:50;;;;;;;5.43;2.70;;;;;;;7.52;100.00;99371.31;5088340;28;20024;-60
2024/01/05 04:58:15;;;;;;;9.20;2.70;;;;;;;7.57;100.00;99384.22;5089471;28;20115;-60
2024/01/05 05:00:40;;;;;;;6.35;3.10;;;;;;;7.56;100.00;99382.50;5091175;28;20439;-60
2024/01/05 05:03:06;;;;;;;4.25;2.33;;;;;;;7.55;100.00;99373.75;5089198;28;20024;-60
2024/01/05 05:05:31;;;;;;;5.15;2.38;;;;;;;7.54;100.00;99366.78;5090997;28;20035;-60
2024/01/05 05:07:57;;;;;;;5.30;2.65;;;;;;;7.50;100.00;99357.38;5090648;28;20103;-60
2024/01/05 05:10:22;;;;;;;4.97;2.50;;;;;;;7.52;100.00;99366.03;5090277;28;20081;-60
2024/01/05 05:12:48;;;;;;;2.58;1.95;;;;;;;7.55;100.00;99370.25;5089355;28;20032;-60
2024/01/05 05:15:14;;;;;;;5.45;3.28;;;;;;;7.41;100.00;99356.28;5090385;28;20106;-59
2024/01/05 05:17:39;;;;;;;8.38;2.10;;;;;;;7.48;100.00;99359.28;5090633;28;20023;-60
2024/01/05 05:20:05;;;;;;;7.75;2.60;;;;;;;7.48;100.00;99365.41;5088952;28;20035;-60
2024/01/05 05:22:30;;;;;;;7.68;2.78;;;;;;;7.45;100.00;99356.88;5090677;28;20028;-60
2024/01/05 05:24:56;;;;;;;7.32;2.40;;;;;;;7.46;100.00;99356.75;5089774;28;20062;-60
2024/01/05 05:27:21;;;;;;;3.25;2.17;;;;;;;7.57;100.00;99365.72;5090624;28;20048;-60
2024/01/05 05:29:47;;;;;;;5.35;2.70;;;;;;;7.44;100.00;99350.75;5090462;28;20027;-60
2024/01/05 05:32:13;;;;;;;4.43;2.15;;;;;;;7.61;100.00;99361.84;5089847;28;20043;-60
2024/01/05 05:34:40;;;;;;;6.30;2.60;;;;;;;7.55;100.00;99347.28;5090558;28;20440;-60
2024/01/05 05:37:08;;;;;;;4.25;2.30;;;;;;;7.65;100.00;99366.81;5090026;28;20116;-60
2024/01/05 05:39:36;;;;;;;4.43;2.50;;;;;;;7.66;100.00;99347.31;5089238;28;20028;-59
2024/01/05 05:42:02;;;;;;;5.53;2.50;;;;;;;7.71;100.00;99362.88;5090117;28;20042;-60
2024/01/05 05:44:28;;;;;;;5.00;2.58;;;;;;;7.72;100.00;99360.09;5088340;28;20573;-60
2024/01/05 05:46:53;;;;;;;3.17;1.90;;;;;;;7.78;100.00;99364.09;5089906;28;20102;-59
2024/01/05 05:49:19;;;;;;;2.72;2.40;;;;;;;7.85;99.50;99360.03;5089955;28;20111;-60
2024/01/05 05:51:45;;;;;;;2.78;2.20;;;;;;;7.96;96.34;99375.09;5089918;28;20024;-59
2024/01/05 05:54:10;;;;;;;3.22;2.00;;;;;;;7.97;96.12;99374.97;5088175;28;20020;-60
2024/01/05 05:56:35;;;;;;;3.42;1.90;;;;;;;7.93;94.19;99360.28;5091141;28;20020;-60
2024/01/05 05:59:01;;;;;;;3.05;2.03;;;;;;;7.96;91.95;99367.13;5090164;28;20024;-60
2024/01/05 06:01:26;;;;;;;1.50;1.40;;;;;;;7.97;89.30;99387.34;5088578;28;20395;-60
2024/01/05 06:03:52;;;;;;;2.90;1.95;;;;;;;7.95;90.62;99379.53;5090153;28;20020;-59
2024/01/05 06:06:19;;;;;;;1.95;1.80;;;;;;;7.93;88.24;99386.75;5090273;28;20051;-60
2024/01/05 06:08:44;;;;;;;2.00;1.90;;;;;;;8.02;87.00;99390.50;5091311;28;20027;-60
2024/01/05 06:11:11;;;;;;;2.65;2.00;;;;;;;7.77;85.78;99404.75;5093512;28;20024;-60
2024/01/05 06:13:39;;;;;;;1.95;1.85;;;;;;;7.76;85.74;99402.22;5093660;28;20024;-60
2024/01/05 06:16:05;;;;;;;1.73;1.63;;;;;;;7.77;84.61;99385.38;5093500;28;20024;-60
2024/01/05 06:18:30;;;;;;;2.10;1.83;;;;;;;7.72;84.81;99385.72;5093918;28;20030;-60
2024/01/05 06:20:55;;;;;;;1.70;1.60;;;;;;;7.60;84.20;99384.00;5093384;28;20035;-60
2024/01/05 06:23:21;;;;;;;1.98;1.88;;;;;;;7.66;87.10;99394.97;5093104;28;20078;-60
2024/01/05 06:25:46;;;;;;;2.17;1.58;;;;;;;7.63;84.42;99370.53;5091659;28;20077;-59
2024/01/05 06:28:14;;;;;;;2.00;1.88;;;;;;;7.55;84.91;99370.25;5091945;28;20545;-59
2024/01/05 06:30:39;;;;;;;2.15;1.98;;;;;;;7.63;84.20;99381.97;5093880;28;20074;-59
2024/01/05 06:33:06;;;;;;;1.95;1.85;;;;;;;7.54;86.86;99387.94;5092095;28;20379;-59
2024/01/05 06:35:32;;;;;;;1.65;1.63;;;;;;;7.54;85.51;99372.06;5093367;28;20027;-60
2024/01/05 06:37:57;;;;;;;1.67;1.58;;;;;;;7.52;85.01;99366.03;5091900;28;20093;-60
2024/01/05 06:40:23;;;;;;;5.03;1.90;;;;;;;7.56;85.34;99375.44;5092743;28;20100;-59
2024/01/05 06:42:48;;;;;;;1.90;1.80;;;;;;;7.54;85.51;99393.22;5091380;28;20037;-59
2024/01/05 06:45:14;;;;;;;1.83;1.73;;;;;;;7.54;86.61;99397.69;5093068;28;20070;-60
2024/01/05 06:47:39;;;;;;;1.77;1.70;;;;;;;7.60;85.51;99390.13;5092201;28;20443;-59
2024/01/05 06:50:05;;;;;;;2.42;1.90;;;;;;;7.58;86.25;99397.31;5092940;28;20494;-59
2024/01/05 06:52:30;;;;;;;2.17;2.05;;;;;;;7.73;85.57;99390.03;5091335;28;20085;-59
2024/01/05 06:54:56;;;;;;;1.95;1.80;;;;;;;7.61;86.25;99389.16;5092318;28;20054;-60
2024/01/05 06:57:21;;;;;;;2.15;1.80;;;;;;;7.59;85.48;99398.16;5092510;28;20024;-60
2024/01/05 06:59:46;;;;;;;1.83;1.73;;;;;;;7.52;85.50;99384.56;5092912;28;20467;-60
2024/01/05 07:02:12;;;;;;;1.92;1.83;;;;;;;7.57;85.71;99387.72;5092728;28;20024;-59
2024/01/05 07:04:37;;;;;;;1.88;1.77;;;;;;;7.64;85.90;99369.56;5092612;28;20545;-60
2024/01/05 07:07:03;;;;;;;2.30;1.92;;;;;;;7.61;84.75;99393.59;5091523;28;20479;-60
2024/01/05 07:09:28;;;;;;;1.70;1.60;;;;;;;7.53;85.42;99380.09;5091094;28;20038;-60
2024/01/05 07:11:53;;;;;;;2.05;1.95;;;;;;;7.55;86.31;99386.13;5092738;28;20028;-59
2024/01/05 07:14:19;;;;;;;1.73;1.50;;;;;;;7.67;85.25;99387.84;5092438;28;20119;-60
2024/01/05 07:16:44;;;;;;;2.88;1.70;;;;;;;7.63;84.77;99404.94;5092276;28;20487;-59
2024/01/05 07:19:10;;;;;;;1.95;1.85;;;;;;;7.53;85.01;99399.47;5092247;28;20028;-60
2024/01/05 07:21:43;;;;;;;3.45;2.00;;;;;;;7.53;85.89;99396.84;5089914;28;20020;-59
2024/01/05 07:24:09;;;;;;;2.10;2.00;;;;;;;7.57;85.36;99386.88;5089925;28;20039;-60
2024/01/05 07:26:35;;;;;;;1.60;1.55;;;;;;;7.56;85.06;99390.44;5086550;28;20024;-60
2024/01/05 07:29:01;;;;;;;1.50;1.50;;;;;;;7.50;84.96;99391.78;5091152;28;20024;-60
2024/01/05 07:31:27;;;;;;;1.73;1.63;;;;;;;7.40;86.14;99388.94;5089969;28;20031;-59
2024/01/05 07:33:53;;;;;;;1.60;1.60;;;;;;;7.36;86.38;99371.63;5090020;28;20119;-59
2024/01/05 07:36:18;;;;;;;1.50;1.40;;;;;;;7.35;87.18;99388.44;5090530;28;20099;-60
2024/01/05 07:38:44;;;;;;;2.85;1.73;;;;;;;7.40;88.29;99394.22;5088966;28;20076;-59
2024/01/05 07:41:15;;;;;;;1.83;1.73;;;;;;;7.39;89.22;99415.53;5091254;28;20020;-59
2024/01/05 07:43:41;;;;;;;1.80;1.70;;;;;;;7.38;90.07;99405.88;5091262;28;20032;-59
2024/01/05 07:46:06;;;;;;;1.80;1.70;;;;;;;7.20;91.86;99406.25;5091558;28;20028;-59
2024/01/05 07:48:32;;;;;;;2.15;1.95;;;;;;;7.19;93.02;99409.03;5089522;28;20114;-60
2024/01/05 07:50:57;;;;;;;3.25;2.00;;;;;;;7.10;95.13;99410.53;5093021;28;20038;-60
2024/01/05 07:53:23;;;;;;;2.22;1.98;;;;;;;6.94;96.17;99384.38;5091110;28;20395;-60
2024/01/05 07:55:50;;;;;;;2.10;2.00;;;;;;;6.98;97.47;99406.13;5089870;28;20030;-59
2024/01/05 07:58:18;;;;;;;2.30;2.13;;;;;;;7.09;96.60;99414.16;5090489;28;20024;-60
2024/01/05 08:00:43;;;;;;;2.30;2.10;;;;;;;6.83;99.51;99410.72;5091760;28;20106;-59
2024/01/05 08:03:10;;;;;;;2.20;2.10;;;;;;;6.77;100.00;99393.50;5090297;28;20073;-60
2024/01/05 08:05:36;;;;;;;2.20;2.10;;;;;;;6.70;100.00;99409.88;5091819;28;20386;-60
2024/01/05 08:08:01;;;;;;;2.10;1.90;;;;;;;6.75;100.00;99402.47;5091249;28;20028;-59
2024/01/05 08:10:27;;;;;;;2.42;2.22;;;;;;;6.76;100.00;99401.50;5090733;28;20035;-60
2024/01/05 08:12:54;;;;;;;2.20;2.10;;;;;;;6.62;100.00;99391.94;5094783;28;20028;-59
2024/01/05 08:15:19;;;;;;;4.05;2.10;;;;;;;6.66;100.00;99413.69;5092216;28;20425;-59
2024/01/05 08:17:45;;;;;;;1.70;1.67;;;;;;;6.58;100.00;99403.66;5089804;28;20467;-60
2024/01/05 08:20:10;;;;;;;2.53;1.80;;;;;;;6.63;100.00;99409.47;5092081;28;20036;-60
2024/01/05 08:22:36;;;;;;;3.85;2.10;;;;;;;6.54;100.00;99400.38;5091298;28;20074;-59
2024/01/05 08:25:03;;;;;;;2.58;2.10;;;;;;;6.52;100.00;99404.91;5090328;28;20395;-59
2024/01/05 08:27:29;;;;;;;2.00;1.90;;;;;;;6.56;100.00;99392.38;5090555;28;20052;-60
2024/01/05 08:29:55;;;;;;;1.95;1.85;;;;;;;6.54;100.00;99410.94;5090904;28;20116;-59
2024/01/05 08:32:20;;;;;;;1.88;1.77;;;;;;;6.48;100.00;99411.38;5091256;28;20028;-59
2024/01/05 08:34:46;;;;;;;2.20;2.10;;;;;;;6.53;100.00;99414.56;5090751;28;20027;-59
2024/01/05 08:37:11;;;;;;;2.30;2.08;;;;;;;6.33;100.00;99402.72;5091020;28;20067;-61
2024/01/05 08:39:39;;;;;;;2.78;2.28;;;;;;;6.47;100.00;99422.91;5091434;28;20028;-59
2024/01/05 08:42:08;;;;;;;3.58;2.10;;;;;;;6.46;100.00;99431.75;5092203;28;20073;-59
2024/01/05 08:44:35;;;;;;;2.28;2.03;;;;;;;6.37;100.00;99416.53;5091790;28;20054;-60
2024/01/05 08:47:00;;;;;;;2.10;2.00;;;;;;;6.30;100.00;99417.94;5091653;28;20430;-59
2024/01/05 08:49:26;;;;;;;2.10;2.00;;;;;;;6.44;100.00;99440.72;5091921;28;20486;-60
2024/01/05 08:51:52;;;;;;;3.08;1.90;;;;;;;6.30;100.00;99429.34;5092117;28;20028;-60
2024/01/05 08:54:18;;;;;;;4.80;2.03;;;;;;;6.19;100.00;99433.66;5091161;28;20037;-59
2024/01/05 08:56:45;;;;;;;2.22;2.13;;;;;;;6.13;100.00;99430.47;5092123;28;20024;-59
2024/01/05 08:59:11;;;;;;;1.98;1.75;;;;;;;6.16;100.00;99404.81;5091912;28;20031;-61
2024/01/05 09:01:37;;;;;;;2.08;1.98;;;;;;;6.14;100.00;99442.72;5073888;28;20081;-59
2024/01/05 09:04:05;;;;;;;2.00;1.90;;;;;;;5.96;100.00;99441.31;5091598;28;20051;-59
2024/01/05 09:06:33;;;;;;;2.10;2.00;;;;;;;5.93;100.00;99454.72;5086154;28;20399;-59
2024/01/05 09:08:59;;;;;;;2.00;1.90;;;;;;;5.86;100.00;99451.59;5089246;28;20028;-59
2024/01/05 09:11:24;;;;;;;2.97;2.13;;;;;;;5.79;100.00;99455.59;5088602;28;20032;-59
2024/01/05 09:13:50;;;;;;;2.47;2.38;;;;;;;5.66;100.00;99441.53;5089913;28;20493;-60
2024/01/05 09:16:17;;;;;;;2.03;1.92;;;;;;;5.78;100.00;99456.53;5090762;28;20383;-60
2024/01/05 09:18:43;;;;;;;2.38;2.17;;;;;;;5.78;100.00;99450.41;5091064;28;20110;-60
2024/01/05 09:21:08;;;;;;;2.30;2.10;;;;;;;5.66;100.00;99450.28;5089471;28;20135;-60
2024/01/05 09:23:34;;;;;;;2.40;2.13;;;;;;;5.60;100.00;99434.84;5090941;28;20450;-59
2024/01/05 09:25:59;;;;;;;2.30;2.20;;;;;;;5.65;100.00;99453.03;5094409;28;20103;-59
2024/01/05 09:28:25;;;;;;;6.55;2.58;;;;;;;5.61;100.00;99444.44;5088251;28;20510;-59
2024/01/05 09:30:50;;;;;;;2.45;2.35;;;;;;;5.61;100.00;99455.00;5090458;28;20102;-59
2024/01/05 09:33:16;;;;;;;2.92;2.60;;;;;;;5.64;100.00;99443.41;5090622;28;20024;-59
2024/01/05 09:35:42;;;;;;;2.35;2.25;;;;;;;5.70;100.00;99478.13;5090378;28;20112;-58
2024/01/05 09:38:07;;;;;;;3.83;2.33;;;;;;;5.67;100.00;99448.47;5087760;28;20381;-59
2024/01/05 09:40:34;;;;;;;2.50;2.30;;;;;;;5.72;100.00;99459.59;5089844;28;20028;-59
2024/01/05 09:43:02;;;;;;;3.13;2.20;;;;;;;5.68;100.00;99466.00;5091331;28;20421;-59
2024/01/05 09:45:31;;;;;;;2.20;2.10;;;;;;;5.69;100.00;99463.25;5092730;28;20024;-59
2024/01/05 09:48:00;;;;;;;2.20;2.10;;;;;;;5.62;100.00;99454.06;5093868;28;20021;-59
2024/01/05 09:50:26;;;;;;;2.97;2.45;;;;;;;5.70;100.00;99472.00;5094533;28;20039;-59
2024/01/05 09:52:52;;;;;;;3.92;2.50;;;;;;;5.72;100.00;99475.41;5090257;28;20069;-59
2024/01/05 09:55:20;;;;;;;2.55;2.35;;;;;;;5.79;100.00;99478.47;5092036;28;20028;-59
2024/01/05 09:57:50;;;;;;;8.05;2.50;;;;;;;5.76;100.00;99466.34;5095064;28;20012;-59
2024/01/05 10:00:18;;;;;;;3.33;2.70;;;;;;;5.76;100.00;99471.59;5093258;28;20028;-59
2024/01/05 10:03:01;;;;;;;2.88;2.67;;;;;;;5.76;100.00;99470.78;5093275;28;20031;-59
2024/01/05 10:05:27;;;;;;;2.47;2.28;;;;;;;5.90;100.00;99476.00;5094424;28;20068;-59
2024/01/05 10:07:52;;;;;;;2.83;2.63;;;;;;;5.95;100.00;99479.22;5094665;28;20016;-60
2024/01/05 10:10:18;;;;;;;2.60;2.40;;;;;;;5.94;100.00;99474.88;5094354;28;20035;-59
2024/01/05 10:12:44;;;;;;;4.97;2.97;;;;;;;6.06;100.00;99463.53;5093475;28;20023;-59
2024/01/05 10:15:12;;;;;;;2.92;2.72;;;;;;;6.40;100.00;99468.31;5094671;28;20024;-60
2024/01/05 10:17:38;;;;;;;3.30;2.53;;;;;;;6.10;100.00;99483.47;5092546;28;21172;-59
2024/01/05 10:20:16;;;;;;;2.35;2.25;;;;;;;6.17;100.00;99481.25;5094389;28;20099;-59
2024/01/05 10:22:46;;;;;;;2.60;2.40;;;;;;;6.29;100.00;99476.94;5094799;28;20020;-59
2024/01/05 10:25:26;;;;;;;;;;;;;;;6.27;100.00;99470.94;5094572;28;20054;-60
2024/01/05 10:27:51;;;;;;;2.67;2.58;;;;;;;6.20;100.00;99449.38;5094352;28;19923;-59
2024/01/05 10:30:28;;;;;;;3.88;2.80;;;;;;;6.32;100.00;99460.91;5093866;28;20059;-59
2024/01/05 10:33:07;;;;;;;3.58;2.42;;;;;;;6.37;100.00;99467.56;5094448;28;20436;-59
2024/01/05 10:35:35;;;;;;;3.30;2.97;;;;;;;6.34;100.00;99466.94;5094357;28;20432;-60
2024/01/05 10:38:12;;;;;;;3.15;2.88;;;;;;;6.39;100.00;99472.75;5094612;28;20031;-59
2024/01/05 10:40:38;;;;;;;3.58;3.30;;;;;;;6.37;100.00;99464.06;5093966;28;20035;-59
2024/01/05 10:43:25;;;;;;;3.63;2.42;;;;;;;6.48;100.00;99473.91;5093996;28;20020;-59
2024/01/05 10:45:50;;;;;;;2.20;2.10;;;;;;;6.42;100.00;99461.13;5094387;28;20034;-60
2024/01/05 10:48:17;;;;;;;3.17;2.70;;;;;;;6.36;100.00;99462.41;5094051;28;20027;-59
2024/01/05 10:50:44;;;;;;;2.65;2.42;;;;;;;6.28;100.00;99455.00;5094144;28;20421;-60
2024/01/05 10:53:10;;;;;;;4.63;2.55;;;;;;;6.36;100.00;99457.13;5092722;28;20043;-59
2024/01/05 10:55:37;;;;;;;2.50;2.30;;;;;;;6.41;100.00;99507.81;5093048;28;20028;-59
2024/01/05 10:58:02;;;;;;;2.83;2.05;;;;;;;6.37;100.00;99477.28;5093329;28;20053;-59
2024/01/05 11:00:28;;;;;;;2.88;2.35;;;;;;;6.33;100.00;99494.28;5092746;28;20036;-59
2024/01/05 11:03:02;;;;;;;2.92;2.40;;;;;;;6.39;100.00;99467.47;5092828;28;20024;-59
2024/01/05 11:05:28;;;;;;;2.15;2.05;;;;;;;6.24;100.00;99458.78;5093801;28;20028;-59
2024/01/05 11:07:55;;;;;;;2.78;2.33;;;;;;;6.34;100.00;99475.69;5094119;28;20038;-59
2024/01/05 11:10:30;;;;;;;3.85;2.70;;;;;;;6.33;100.00;99479.28;5092675;28;20085;-59
2024/01/05 11:13:20;;;;;;;3.38;2.55;;;;;;;6.34;100.00;99480.97;5092910;28;20035;-59
2024/01/05 11:16:04;;;;;;;2.60;2.40;;;;;;;6.33;100.00;99481.94;5093508;28;20081;-62
2024/01/05 11:19:09;;;;;;;5.68;2.65;;;;;;;6.41;100.00;99473.47;5091547;28;20032;-59
2024/01/05 11:21:56;;;;;;;4.15;2.70;;;;;;;6.40;100.00;99498.19;5071621;28;20036;-59
2024/01/05 11:24:25;;;;;;;2.58;2.38;;;;;;;6.34;100.00;99472.22;5082410;28;20104;-59
2024/01/05 11:26:53;;;;;;;4.22;2.97;;;;;;;6.18;100.00;99479.47;5092665;28;20040;-59
2024/01/05 11:29:56;;;;;;;3.92;2.88;;;;;;;6.35;100.00;99484.44;5092303;28;20044;-59
2024/01/05 11:32:45;;;;;;;2.92;2.72;;;;;;;6.36;100.00;99468.53;5092607;28;20070;-59